createdAt,value
2018-11-04T00:01:28.940Z,51.70
2018-11-04T00:03:57.021Z,51.90
2018-11-04T00:06:25.120Z,51.80
2018-11-04T00:08:53.235Z,51.90
2018-11-04T00:11:21.375Z,51.90
2018-11-04T00:13:49.575Z,51.80
2018-11-04T00:16:17.688Z,51.80
2018-11-04T00:18:46.225Z,51.80
2018-11-04T00:21:14.338Z,51.80
2018-11-04T00:23:42.477Z,51.90
2018-11-04T00:26:10.568Z,51.90
2018-11-04T00:28:38.719Z,51.90
2018-11-04T00:31:06.840Z,52.00
2018-11-04T00:33:34.984Z,51.90
2018-11-04T00:36:03.088Z,52.00
2018-11-04T00:38:31.203Z,51.80
2018-11-04T00:40:59.322Z,51.70
2018-11-04T00:43:27.432Z,51.90
2018-11-04T00:45:55.536Z,52.00
2018-11-04T00:48:23.999Z,52.00
2018-11-04T00:50:52.084Z,51.80
2018-11-04T00:53:20.359Z,51.90
2018-11-04T00:55:55.032Z,51.90
2018-11-04T00:58:24.028Z,52.60
2018-11-04T01:00:52.186Z,51.90
2018-11-04T01:03:20.300Z,51.90
2018-11-04T01:05:48.420Z,51.80
2018-11-04T01:08:16.521Z,52.00
2018-11-04T01:10:44.639Z,52.10
2018-11-04T01:13:12.768Z,51.90
2018-11-04T01:15:40.872Z,52.00
2018-11-04T01:18:08.971Z,52.10
2018-11-04T01:20:37.060Z,52.00
2018-11-04T01:23:05.199Z,52.10
2018-11-04T01:25:33.288Z,52.00
2018-11-04T01:28:01.365Z,52.00
2018-11-04T01:30:29.516Z,52.00
2018-11-04T01:32:57.592Z,52.10
2018-11-04T01:35:25.723Z,52.00
2018-11-04T01:37:53.782Z,52.00
2018-11-04T01:40:21.917Z,52.00
2018-11-04T01:42:50.000Z,52.00
2018-11-04T01:45:18.104Z,52.20
2018-11-04T01:47:46.190Z,52.10
2018-11-04T01:50:14.811Z,52.00
2018-11-04T01:52:42.926Z,52.00
2018-11-04T01:55:11.881Z,52.00
2018-11-04T01:57:39.965Z,52.10
2018-11-04T02:00:15.163Z,52.20
2018-11-04T02:02:45.301Z,52.10
2018-11-04T02:05:14.125Z,52.10
2018-11-04T02:07:42.221Z,52.60
2018-11-04T02:10:12.012Z,52.10
2018-11-04T02:12:40.151Z,52.20
2018-11-04T02:15:11.313Z,52.00
2018-11-04T02:17:39.499Z,51.90
2018-11-04T02:20:08.805Z,52.10
2018-11-04T02:22:41.011Z,52.00
2018-11-04T02:25:10.410Z,52.10
2018-11-04T02:27:38.702Z,52.00
2018-11-04T02:30:07.871Z,51.90
2018-11-04T02:32:35.992Z,51.90
2018-11-04T02:35:04.479Z,52.20
2018-11-04T02:37:32.564Z,52.20
2018-11-04T02:40:00.731Z,52.30
2018-11-04T02:42:28.842Z,52.20
2018-11-04T02:44:56.998Z,52.40
2018-11-04T02:47:26.422Z,52.30
2018-11-04T02:49:54.547Z,52.20
2018-11-04T02:52:22.694Z,52.20
2018-11-04T02:54:50.780Z,52.10
2018-11-04T02:57:18.883Z,52.30
2018-11-04T02:59:47.007Z,52.30
2018-11-04T03:02:16.338Z,52.30
2018-11-04T03:04:44.512Z,52.40
2018-11-04T03:07:12.661Z,52.30
2018-11-04T03:09:40.811Z,52.30
2018-11-04T03:12:08.944Z,52.20
2018-11-04T03:14:37.104Z,52.30
2018-11-04T03:17:05.380Z,52.30
2018-11-04T03:19:33.868Z,52.30
2018-11-04T03:22:01.997Z,52.40
2018-11-04T03:24:30.438Z,52.40
2018-11-04T03:26:58.542Z,52.50
2018-11-04T03:29:26.667Z,52.40
2018-11-04T03:31:55.503Z,52.40
2018-11-04T03:34:23.601Z,52.40
2018-11-04T03:36:51.714Z,52.20
2018-11-04T03:39:19.803Z,52.30
2018-11-04T03:41:47.950Z,52.40
2018-11-04T03:44:16.088Z,52.30
2018-11-04T03:46:44.204Z,52.30
2018-11-04T03:49:13.191Z,52.40
2018-11-04T03:51:41.326Z,52.40
2018-11-04T03:54:10.165Z,52.30
2018-11-04T03:56:38.243Z,52.40
2018-11-04T03:59:06.424Z,52.40
2018-11-04T04:01:34.529Z,52.40
2018-11-04T04:04:03.872Z,52.40
2018-11-04T04:06:31.971Z,52.40
2018-11-04T04:09:00.059Z,52.40
2018-11-04T04:11:28.199Z,52.50
2018-11-04T04:13:58.900Z,52.60
2018-11-04T04:16:27.019Z,52.60
2018-11-04T04:18:55.170Z,52.50
2018-11-04T04:21:23.269Z,52.50
2018-11-04T04:23:51.353Z,52.40
2018-11-04T04:26:19.456Z,52.50
2018-11-04T04:28:47.563Z,52.50
2018-11-04T04:31:15.717Z,52.50
2018-11-04T04:33:44.872Z,52.60
2018-11-04T04:36:13.017Z,52.70
2018-11-04T04:38:41.072Z,52.60
2018-11-04T04:41:09.211Z,52.60
2018-11-04T04:43:37.304Z,52.60
2018-11-04T04:46:05.393Z,52.60
2018-11-04T04:48:33.512Z,52.90
2018-11-04T04:51:01.635Z,52.70
2018-11-04T04:53:31.580Z,52.80
2018-11-04T04:55:59.677Z,52.90
2018-11-04T04:58:29.756Z,52.80
2018-11-04T05:00:57.834Z,52.80
2018-11-04T05:03:25.960Z,52.90
2018-11-04T05:05:54.044Z,52.70
2018-11-04T05:08:22.204Z,52.80
2018-11-04T05:10:50.460Z,53.00
2018-11-04T05:13:18.647Z,52.90
2018-11-04T05:15:46.772Z,52.90
2018-11-04T05:18:16.406Z,53.10
2018-11-04T05:20:48.108Z,53.10
2018-11-04T05:23:16.576Z,53.00
2018-11-04T05:25:44.663Z,53.10
2018-11-04T05:28:12.823Z,53.00
2018-11-04T05:30:43.366Z,53.20
2018-11-04T05:33:11.499Z,53.20
2018-11-04T05:35:39.630Z,53.20
2018-11-04T05:38:07.796Z,53.30
2018-11-04T05:40:35.883Z,53.40
2018-11-04T05:43:03.992Z,53.50
2018-11-04T05:45:32.114Z,53.30
2018-11-04T05:48:00.263Z,53.40
2018-11-04T05:50:28.383Z,53.30
2018-11-04T05:52:56.489Z,53.40
2018-11-04T05:55:24.596Z,53.30
2018-11-04T05:57:52.745Z,53.30
2018-11-04T06:02:55.294Z,53.50
2018-11-04T06:05:23.399Z,53.50
2018-11-04T06:07:51.511Z,53.50
2018-11-04T06:10:19.587Z,53.60
2018-11-04T06:12:47.724Z,53.70
2018-11-04T06:15:15.830Z,53.40
2018-11-04T06:17:43.927Z,53.50
2018-11-04T06:20:12.787Z,53.50
2018-11-04T06:22:41.897Z,53.60
2018-11-04T06:25:09.979Z,53.70
2018-11-04T06:27:38.111Z,53.60
2018-11-04T06:30:07.968Z,53.80
2018-11-04T06:32:36.079Z,53.70
2018-11-04T06:35:04.659Z,53.60
2018-11-04T06:37:32.795Z,53.70
2018-11-04T06:40:00.907Z,53.60
2018-11-04T06:42:29.029Z,53.70
2018-11-04T06:44:57.124Z,53.70
2018-11-04T06:47:25.253Z,53.70
2018-11-04T06:49:53.345Z,53.90
2018-11-04T06:52:21.484Z,53.80
2018-11-04T06:54:49.593Z,53.90
2018-11-04T06:57:17.685Z,53.80
2018-11-04T06:59:45.789Z,53.70
2018-11-04T07:02:13.907Z,53.70
2018-11-04T07:04:42.009Z,53.80
2018-11-04T07:07:10.156Z,53.90
2018-11-04T07:09:38.279Z,53.90
2018-11-04T07:12:06.468Z,53.90
2018-11-04T07:14:34.590Z,53.80
2018-11-04T07:17:02.681Z,53.80
2018-11-04T07:19:30.797Z,53.70
2018-11-04T07:21:58.941Z,53.80
2018-11-04T07:24:27.086Z,54.20
2018-11-04T07:26:55.213Z,53.70
2018-11-04T07:29:23.316Z,53.70
2018-11-04T07:31:51.496Z,53.80
2018-11-04T07:34:19.560Z,53.80
2018-11-04T07:36:47.655Z,53.80
2018-11-04T07:39:15.756Z,53.70
2018-11-04T07:41:43.868Z,53.70
2018-11-04T07:44:12.013Z,53.80
2018-11-04T07:46:40.112Z,53.80
2018-11-04T07:49:08.228Z,53.80
2018-11-04T07:51:36.446Z,53.70
2018-11-04T07:54:04.682Z,53.70
2018-11-04T07:56:32.787Z,53.70
2018-11-04T07:59:00.891Z,53.80
2018-11-04T08:01:29.014Z,53.60
2018-11-04T08:03:57.184Z,53.60
2018-11-04T08:06:25.276Z,53.70
2018-11-04T08:08:53.397Z,53.70
2018-11-04T08:11:21.531Z,53.70
2018-11-04T08:13:49.636Z,53.60
2018-11-04T08:16:17.809Z,53.60
2018-11-04T08:18:46.000Z,53.60
2018-11-04T08:21:14.179Z,53.60
2018-11-04T08:23:42.223Z,53.60
2018-11-04T08:26:10.346Z,53.70
2018-11-04T08:28:38.449Z,53.60
2018-11-04T08:31:06.542Z,53.60
2018-11-04T08:33:34.672Z,53.40
2018-11-04T08:36:02.796Z,53.50
2018-11-04T08:38:30.919Z,53.50
2018-11-04T08:40:59.036Z,53.40
2018-11-04T08:43:27.159Z,53.50
2018-11-04T08:45:55.301Z,53.40
2018-11-04T08:48:23.375Z,53.60
2018-11-04T08:50:51.488Z,53.50
2018-11-04T08:53:19.619Z,53.50
2018-11-04T08:55:47.768Z,53.50
2018-11-04T08:58:15.890Z,53.50
2018-11-04T09:00:44.017Z,53.30
2018-11-04T09:03:12.092Z,53.20
2018-11-04T09:05:40.193Z,53.30
2018-11-04T09:08:08.314Z,53.20
2018-11-04T09:10:36.412Z,53.10
2018-11-04T09:13:04.535Z,53.20
2018-11-04T09:15:32.656Z,53.20
2018-11-04T09:18:00.781Z,53.20
2018-11-04T09:20:28.896Z,53.20
2018-11-04T09:22:57.032Z,53.20
2018-11-04T09:25:25.143Z,53.00
2018-11-04T09:27:53.224Z,53.20
2018-11-04T09:30:21.337Z,53.20
2018-11-04T09:32:49.457Z,53.10
2018-11-04T09:35:17.669Z,53.20
2018-11-04T09:37:45.656Z,53.30
2018-11-04T09:40:14.180Z,53.10
2018-11-04T09:42:42.253Z,53.20
2018-11-04T09:45:10.594Z,53.30
2018-11-04T09:47:38.764Z,53.40
2018-11-04T09:50:08.245Z,53.30
2018-11-04T09:52:36.240Z,53.40
2018-11-04T09:55:04.750Z,53.50
2018-11-04T09:57:32.844Z,53.50
2018-11-04T10:00:01.013Z,53.50
2018-11-04T10:02:29.141Z,53.40
2018-11-04T10:04:57.259Z,53.60
2018-11-04T10:07:25.384Z,53.50
2018-11-04T10:09:53.509Z,53.50
2018-11-04T10:12:21.636Z,53.60
2018-11-04T10:14:49.810Z,53.70
2018-11-04T10:17:17.915Z,53.80
2018-11-04T10:19:46.250Z,53.60
2018-11-04T10:22:14.173Z,53.60
2018-11-04T10:24:42.298Z,53.50
2018-11-04T10:27:10.408Z,53.60
2018-11-04T10:29:38.498Z,53.60
2018-11-04T10:32:06.616Z,53.50
2018-11-04T10:34:34.701Z,53.60
2018-11-04T10:37:02.890Z,53.50
2018-11-04T10:39:30.956Z,53.40
2018-11-04T10:41:59.056Z,53.80
2018-11-04T10:44:27.174Z,53.30
2018-11-04T10:46:55.299Z,53.30
2018-11-04T10:49:23.485Z,53.20
2018-11-04T10:51:51.523Z,53.40
2018-11-04T10:54:19.667Z,53.30
2018-11-04T10:56:47.808Z,53.30
2018-11-04T10:59:15.898Z,53.20
2018-11-04T11:01:43.992Z,53.40
2018-11-04T11:04:12.112Z,53.40
2018-11-04T11:06:40.239Z,53.30
2018-11-04T11:09:09.025Z,53.30
2018-11-04T11:11:37.712Z,53.20
2018-11-04T11:14:05.805Z,52.90
2018-11-04T11:16:33.903Z,52.80
2018-11-04T11:19:02.052Z,52.80
2018-11-04T11:21:30.148Z,52.90
2018-11-04T11:23:58.265Z,52.80
2018-11-04T11:26:26.395Z,52.80
2018-11-04T11:28:54.483Z,52.80
2018-11-04T11:31:22.596Z,53.00
2018-11-04T11:33:50.687Z,52.80
2018-11-04T11:36:18.838Z,52.70
2018-11-04T11:38:46.935Z,52.60
2018-11-04T11:41:15.052Z,52.50
2018-11-04T11:43:43.175Z,52.20
2018-11-04T11:46:11.279Z,52.20
2018-11-04T11:48:39.380Z,52.10
2018-11-04T11:51:07.496Z,51.90
2018-11-04T11:53:35.589Z,51.80
2018-11-04T11:56:03.939Z,51.40
2018-11-04T11:58:32.036Z,50.60
2018-11-04T12:01:00.208Z,50.30
2018-11-04T12:03:28.308Z,50.20
2018-11-04T12:05:56.435Z,50.60
2018-11-04T12:08:24.551Z,50.80
2018-11-04T12:10:52.660Z,50.90
2018-11-04T12:13:20.752Z,50.60
2018-11-04T12:15:48.852Z,50.30
2018-11-04T12:18:16.968Z,50.50
2018-11-04T12:20:45.100Z,50.80
2018-11-04T12:23:13.237Z,50.80
2018-11-04T12:25:41.334Z,50.80
2018-11-04T12:28:09.448Z,50.40
2018-11-04T12:30:37.550Z,50.20
2018-11-04T12:33:05.662Z,50.20
2018-11-04T12:35:33.783Z,50.20
2018-11-04T12:38:01.909Z,50.20
2018-11-04T12:40:30.012Z,50.10
2018-11-04T12:42:58.108Z,50.50
2018-11-04T12:45:26.246Z,50.50
2018-11-04T12:47:54.356Z,52.00
2018-11-04T12:50:22.460Z,51.60
2018-11-04T12:52:50.563Z,51.80
2018-11-04T12:55:18.675Z,51.90
2018-11-04T12:57:46.792Z,52.20
2018-11-04T13:00:16.011Z,52.30
2018-11-04T13:02:44.896Z,52.40
2018-11-04T13:05:12.998Z,52.30
2018-11-04T13:07:41.130Z,52.40
2018-11-04T13:10:10.830Z,52.60
2018-11-04T13:12:39.170Z,52.70
2018-11-04T13:15:08.020Z,52.70
2018-11-04T13:17:36.140Z,52.70
2018-11-04T13:20:04.340Z,52.50
2018-11-04T13:22:32.447Z,52.70
2018-11-04T13:25:00.551Z,52.80
2018-11-04T13:27:28.687Z,52.90
2018-11-04T13:29:56.761Z,53.00
2018-11-04T13:32:24.860Z,53.00
2018-11-04T13:34:52.975Z,53.00
2018-11-04T13:37:21.125Z,53.10
2018-11-04T13:39:49.355Z,53.20
2018-11-04T13:42:17.556Z,56.80
2018-11-04T13:44:45.645Z,53.80
2018-11-04T13:47:13.831Z,52.10
2018-11-04T13:49:42.045Z,51.00
2018-11-04T13:52:10.163Z,50.20
2018-11-04T13:54:38.410Z,49.80
2018-11-04T13:57:06.557Z,49.60
2018-11-04T13:59:35.601Z,49.40
2018-11-04T14:02:03.789Z,49.30
2018-11-04T14:04:32.009Z,49.10
2018-11-04T14:07:00.413Z,49.50
2018-11-04T14:09:28.556Z,48.70
2018-11-04T14:11:56.659Z,48.60
2018-11-04T14:14:24.776Z,48.60
2018-11-04T14:16:52.868Z,48.50
2018-11-04T14:19:20.985Z,48.40
2018-11-04T14:21:49.080Z,48.40
2018-11-04T14:24:17.184Z,48.30
2018-11-04T14:26:45.413Z,48.10
2018-11-04T14:29:13.507Z,48.10
2018-11-04T14:31:41.600Z,48.10
2018-11-04T14:34:09.842Z,48.00
2018-11-04T14:36:38.032Z,47.90
2018-11-04T14:39:07.476Z,47.80
2018-11-04T14:41:35.708Z,47.80
2018-11-04T14:44:03.828Z,47.60
2018-11-04T14:46:32.000Z,47.70
2018-11-04T14:49:00.248Z,47.90
2018-11-04T14:51:28.408Z,48.20
2018-11-04T14:53:56.562Z,48.10
2018-11-04T14:56:27.138Z,47.80
2018-11-04T14:58:55.503Z,47.80
2018-11-04T15:01:23.700Z,48.50
2018-11-04T15:03:52.193Z,48.90
2018-11-04T15:06:20.583Z,49.20
2018-11-04T15:08:48.725Z,49.50
2018-11-04T15:11:16.923Z,49.90
2018-11-04T15:13:44.988Z,49.90
2018-11-04T15:16:13.120Z,50.10
2018-11-04T15:18:41.251Z,50.20
2018-11-04T15:21:09.311Z,50.60
2018-11-04T15:23:37.464Z,50.60
2018-11-04T15:26:05.844Z,50.90
2018-11-04T15:28:33.996Z,51.00
2018-11-04T15:31:02.100Z,51.10
2018-11-04T15:33:30.236Z,51.30
2018-11-04T15:35:58.323Z,51.50
2018-11-04T15:38:26.497Z,51.40
2018-11-04T15:40:54.572Z,51.40
2018-11-04T15:43:22.681Z,51.70
2018-11-04T15:45:50.816Z,51.90
2018-11-04T15:48:18.919Z,52.00
2018-11-04T15:50:47.024Z,52.00
2018-11-04T15:53:15.120Z,52.30
2018-11-04T15:55:43.225Z,52.40
2018-11-04T15:58:11.366Z,52.40
2018-11-04T16:00:39.467Z,52.40
2018-11-04T16:03:08.000Z,52.60
2018-11-04T16:05:36.141Z,52.70
2018-11-04T16:08:04.268Z,52.80
2018-11-04T16:10:32.416Z,52.80
2018-11-04T16:13:00.537Z,52.70
2018-11-04T16:15:28.661Z,53.00
2018-11-04T16:17:56.820Z,53.00
2018-11-04T16:20:24.880Z,53.00
2018-11-04T16:22:52.984Z,53.20
2018-11-04T16:25:21.165Z,53.40
2018-11-04T16:27:49.331Z,53.40
2018-11-04T16:30:17.453Z,53.40
2018-11-04T16:32:45.529Z,53.40
2018-11-04T16:35:14.317Z,53.40
2018-11-04T16:37:44.015Z,53.60
2018-11-04T16:40:12.093Z,53.80
2018-11-04T16:42:40.534Z,53.80
2018-11-04T16:45:11.267Z,54.20
2018-11-04T16:47:39.586Z,54.10
2018-11-04T16:50:08.483Z,54.00
2018-11-04T16:52:36.839Z,54.10
2018-11-04T16:55:05.856Z,54.10
2018-11-04T16:57:33.999Z,54.00
2018-11-04T17:00:02.983Z,54.00
2018-11-04T17:02:31.102Z,54.10
2018-11-04T17:04:59.244Z,54.30
2018-11-04T17:07:27.321Z,54.40
2018-11-04T17:09:55.516Z,54.30
2018-11-04T17:12:23.996Z,54.40
2018-11-04T17:14:52.312Z,54.30
2018-11-04T17:17:20.457Z,54.50
2018-11-04T17:19:48.721Z,54.60
2018-11-04T17:22:17.007Z,54.50
2018-11-04T17:24:45.151Z,54.60
2018-11-04T17:27:13.502Z,55.30
2018-11-04T17:29:41.748Z,54.80
2018-11-04T17:32:10.000Z,54.70
2018-11-04T17:34:38.204Z,54.80
2018-11-04T17:37:06.986Z,54.80
2018-11-04T17:39:35.205Z,55.00
2018-11-04T17:42:03.268Z,55.10
2018-11-04T17:44:31.465Z,55.20
2018-11-04T17:46:59.543Z,55.10
2018-11-04T17:49:27.720Z,55.20
2018-11-04T17:51:55.956Z,55.20
2018-11-04T17:54:24.314Z,55.20
2018-11-04T17:56:52.767Z,55.40
2018-11-04T17:59:20.891Z,55.20
2018-11-04T18:01:49.017Z,55.30
2018-11-04T18:04:17.619Z,55.30
2018-11-04T18:06:46.443Z,55.30
2018-11-04T18:09:14.560Z,55.40
2018-11-04T18:11:42.759Z,55.40
2018-11-04T18:14:10.915Z,55.40
2018-11-04T18:16:39.353Z,55.50
2018-11-04T18:19:07.468Z,55.50
2018-11-04T18:21:35.970Z,55.40
2018-11-04T18:24:04.230Z,55.50
2018-11-04T18:26:32.767Z,55.60
2018-11-04T18:29:00.727Z,55.80
2018-11-04T18:31:29.264Z,55.80
2018-11-04T18:33:57.430Z,55.90
2018-11-04T18:36:25.603Z,55.80
2018-11-04T18:38:53.792Z,55.80
2018-11-04T18:41:21.948Z,55.80
2018-11-04T18:43:50.145Z,56.10
2018-11-04T18:46:18.283Z,56.70
2018-11-04T18:48:46.579Z,56.00
2018-11-04T18:51:14.966Z,56.00
2018-11-04T18:53:43.125Z,56.00
2018-11-04T18:56:11.356Z,56.10
2018-11-04T18:58:39.469Z,56.50
2018-11-04T19:01:07.617Z,56.10
2018-11-04T19:03:35.732Z,56.00
2018-11-04T19:06:03.868Z,56.50
2018-11-04T19:08:32.043Z,56.40
2018-11-04T19:11:00.424Z,56.00
2018-11-04T19:13:28.529Z,56.00
2018-11-04T19:15:56.704Z,55.90
2018-11-04T19:18:24.937Z,56.00
2018-11-04T19:20:53.077Z,56.00
2018-11-04T19:23:21.216Z,56.00
2018-11-04T19:25:49.399Z,56.00
2018-11-04T19:28:17.540Z,56.00
2018-11-04T19:30:45.686Z,55.80
2018-11-04T19:33:13.792Z,55.90
2018-11-04T19:35:41.879Z,56.00
2018-11-04T19:38:10.035Z,56.00
2018-11-04T19:40:38.143Z,56.00
2018-11-04T19:43:06.378Z,56.00
2018-11-04T19:45:34.478Z,56.00
2018-11-04T19:48:02.627Z,56.00
2018-11-04T19:50:30.720Z,55.90
2018-11-04T19:52:58.895Z,56.00
2018-11-04T19:55:27.095Z,56.00
2018-11-04T19:57:55.240Z,56.10
2018-11-04T20:00:23.356Z,56.00
2018-11-04T20:02:51.983Z,56.00
2018-11-04T20:05:20.503Z,56.60
2018-11-04T20:07:48.651Z,56.10
2018-11-04T20:10:18.372Z,56.10
2018-11-04T20:12:51.957Z,56.00
2018-11-04T20:15:20.098Z,56.10
2018-11-04T20:17:49.005Z,56.10
2018-11-04T20:20:20.799Z,56.30
2018-11-04T20:22:49.255Z,56.30
2018-11-04T20:25:22.908Z,56.30
2018-11-04T20:27:51.218Z,56.30
2018-11-04T20:30:19.332Z,56.40
2018-11-04T20:32:54.231Z,56.30
2018-11-04T20:35:22.553Z,56.30
2018-11-04T20:37:53.179Z,56.30
2018-11-04T20:40:26.928Z,56.30
2018-11-04T20:42:56.233Z,56.30
2018-11-04T20:45:27.939Z,56.40
2018-11-04T20:48:01.565Z,56.30
2018-11-04T20:50:35.239Z,56.30
2018-11-04T20:53:03.575Z,56.40
2018-11-04T20:55:36.989Z,56.40
2018-11-04T20:58:05.252Z,56.40
2018-11-04T21:00:33.371Z,56.40
2018-11-04T21:03:01.686Z,56.50
2018-11-04T21:05:29.813Z,56.60
2018-11-04T21:07:57.992Z,56.50
2018-11-04T21:10:26.110Z,56.40
2018-11-04T21:12:54.235Z,56.60
2018-11-04T21:15:22.378Z,56.60
2018-11-04T21:17:50.625Z,56.60
2018-11-04T21:20:18.761Z,56.60
2018-11-04T21:22:47.860Z,56.50
2018-11-04T21:25:16.010Z,56.60
2018-11-04T21:27:44.130Z,56.90
2018-11-04T21:30:13.052Z,56.70
2018-11-04T21:32:41.420Z,56.70
2018-11-04T21:35:09.669Z,56.60
2018-11-04T21:37:37.841Z,56.40
2018-11-04T21:40:07.312Z,56.50
2018-11-04T21:42:35.526Z,56.60
2018-11-04T21:45:03.688Z,56.60
2018-11-04T21:47:31.865Z,56.70
2018-11-04T21:49:59.972Z,56.60
2018-11-04T21:52:28.105Z,56.70
2018-11-04T21:54:56.199Z,56.70
2018-11-04T21:57:24.359Z,56.60
2018-11-04T21:59:52.528Z,56.60
2018-11-04T22:02:20.768Z,56.70
2018-11-04T22:04:48.946Z,56.60
2018-11-04T22:07:17.255Z,56.70
2018-11-04T22:09:45.597Z,56.60
2018-11-04T22:12:13.827Z,56.60
2018-11-04T22:14:41.995Z,56.60
2018-11-04T22:17:10.168Z,56.60
2018-11-04T22:19:38.383Z,56.70
2018-11-04T22:22:06.609Z,56.70
2018-11-04T22:24:34.921Z,56.60
2018-11-04T22:27:03.155Z,56.10
2018-11-04T22:29:31.452Z,56.70
2018-11-04T22:31:59.554Z,56.70
2018-11-04T22:34:27.656Z,56.70
2018-11-04T22:36:55.757Z,56.70
2018-11-04T22:39:23.917Z,56.70
2018-11-04T22:41:52.067Z,56.70
2018-11-04T22:44:20.184Z,56.60
2018-11-04T22:46:48.286Z,56.60
2018-11-04T22:49:16.411Z,56.50
2018-11-04T22:51:45.534Z,56.60
2018-11-04T22:54:13.625Z,56.80
2018-11-04T22:56:41.944Z,56.80
2018-11-04T22:59:09.978Z,56.80
2018-11-04T23:01:38.155Z,56.70
2018-11-04T23:04:06.733Z,56.80
2018-11-04T23:06:34.871Z,56.50
2018-11-04T23:09:03.102Z,56.60
2018-11-04T23:11:31.267Z,57.20
2018-11-04T23:13:59.458Z,56.60
2018-11-04T23:16:27.647Z,56.80
2018-11-04T23:18:55.759Z,56.90
2018-11-04T23:21:23.899Z,56.90
2018-11-04T23:23:52.029Z,56.90
2018-11-04T23:26:20.148Z,56.60
2018-11-04T23:28:48.280Z,56.60
2018-11-04T23:31:16.447Z,56.60
2018-11-04T23:33:44.576Z,56.60
2018-11-04T23:36:12.692Z,56.70
2018-11-04T23:38:40.847Z,56.70
2018-11-04T23:41:08.962Z,56.70
2018-11-04T23:43:37.091Z,56.80
2018-11-04T23:46:06.087Z,56.80
2018-11-04T23:48:34.192Z,56.70
2018-11-04T23:51:02.384Z,56.80
2018-11-04T23:53:30.513Z,56.80
2018-11-04T23:55:58.648Z,56.60
2018-11-04T23:58:26.751Z,56.60
